sensor_id;sensor_type;location;lat;lon;timestamp;P1;durP1;ratioP1;P2;durP2;ratioP2
4786;SDS011;62338;48.832;9.422;2023-02-03T09:50:41;7.43;;;3.73;;
4786;SDS011;62338;48.832;9.422;2023-02-03T09:52:44;9.53;;;3.90;;
4786;SDS011;62338;48.832;9.422;2023-02-03T09:54:52;5.90;;;3.40;;
4786;SDS011;62338;48.832;9.422;2023-02-03T09:56:59;7.33;;;3.67;;
4786;SDS011;62338;48.832;9.422;2023-02-03T09:59:05;5.90;;;3.30;;
4786;SDS011;62338;48.832;9.422;2023-02-03T10:01:09;6.40;;;3.73;;
4786;SDS011;62338;48.832;9.422;2023-02-03T10:12:24;6.00;;;3.43;;
4786;SDS011;62338;48.832;9.422;2023-02-03T10:14:48;7.03;;;3.40;;
4786;SDS011;62338;48.832;9.422;2023-02-03T10:19:32;5.03;;;3.07;;
4786;SDS011;62338;48.832;9.422;2023-02-03T10:21:47;5.67;;;3.27;;
4786;SDS011;62338;48.832;9.422;2023-02-03T10:23:52;4.80;;;3.00;;
4786;SDS011;62338;48.832;9.422;2023-02-03T10:25:57;5.23;;;3.07;;
4786;SDS011;62338;48.832;9.422;2023-02-03T10:28:02;5.77;;;3.17;;
4786;SDS011;62338;48.832;9.422;2023-02-03T10:30:17;5.90;;;3.17;;
4786;SDS011;62338;48.832;9.422;2023-02-03T10:32:25;5.97;;;3.10;;
4786;SDS011;62338;48.832;9.422;2023-02-03T10:34:27;5.90;;;2.90;;
4786;SDS011;62338;48.832;9.422;2023-02-03T10:36:35;7.10;;;2.77;;
4786;SDS011;62338;48.832;9.422;2023-02-03T10:39:45;6.00;;;2.90;;
4786;SDS011;62338;48.832;9.422;2023-02-03T10:41:38;4.83;;;2.50;;
4786;SDS011;62338;48.832;9.422;2023-02-03T10:43:40;4.97;;;2.60;;
4786;SDS011;62338;48.832;9.422;2023-02-03T10:45:48;4.47;;;2.60;;
4786;SDS011;62338;48.832;9.422;2023-02-03T10:47:51;4.30;;;2.40;;
4786;SDS011;62338;48.832;9.422;2023-02-03T10:49:56;5.10;;;2.60;;
4786;SDS011;62338;48.832;9.422;2023-02-03T10:51:59;5.53;;;2.63;;
4786;SDS011;62338;48.832;9.422;2023-02-03T10:54:08;4.00;;;2.50;;
4786;SDS011;62338;48.832;9.422;2023-02-03T10:56:34;5.20;;;2.07;;
4786;SDS011;62338;48.832;9.422;2023-02-03T10:58:38;3.93;;;2.30;;
4786;SDS011;62338;48.832;9.422;2023-02-03T11:00:47;4.07;;;2.50;;
4786;SDS011;62338;48.832;9.422;2023-02-03T11:07:24;3.07;;;2.20;;
4786;SDS011;62338;48.832;9.422;2023-02-03T11:09:28;6.10;;;2.10;;
4786;SDS011;62338;48.832;9.422;2023-02-03T11:11:39;2.83;;;1.93;;
4786;SDS011;62338;48.832;9.422;2023-02-03T11:13:42;4.30;;;2.30;;
4786;SDS011;62338;48.832;9.422;2023-02-03T11:17:55;4.07;;;2.00;;
4786;SDS011;62338;48.832;9.422;2023-02-03T11:20:02;4.03;;;2.00;;
4786;SDS011;62338;48.832;9.422;2023-02-03T11:22:24;4.00;;;2.17;;
4786;SDS011;62338;48.832;9.422;2023-02-03T11:24:32;5.80;;;2.00;;
4786;SDS011;62338;48.832;9.422;2023-02-03T11:26:44;4.70;;;2.70;;
4786;SDS011;62338;48.832;9.422;2023-02-03T11:29:13;3.03;;;1.83;;
4786;SDS011;62338;48.832;9.422;2023-02-03T11:31:22;7.63;;;2.10;;
4786;SDS011;62338;48.832;9.422;2023-02-03T11:33:29;4.83;;;1.90;;
4786;SDS011;62338;48.832;9.422;2023-02-03T11:35:31;4.47;;;2.50;;
4786;SDS011;62338;48.832;9.422;2023-02-03T11:37:38;4.20;;;2.10;;
4786;SDS011;62338;48.832;9.422;2023-02-03T11:39:48;3.17;;;1.73;;
4786;SDS011;62338;48.832;9.422;2023-02-03T11:41:50;2.80;;;1.80;;
4786;SDS011;62338;48.832;9.422;2023-02-03T11:43:51;3.53;;;1.43;;
4786;SDS011;62338;48.832;9.422;2023-02-03T11:46:00;2.50;;;1.30;;
4786;SDS011;62338;48.832;9.422;2023-02-03T11:48:12;1.70;;;1.20;;
4786;SDS011;62338;48.832;9.422;2023-02-03T11:55:27;2.03;;;1.20;;
4786;SDS011;62338;48.832;9.422;2023-02-03T11:57:40;2.00;;;1.10;;
4786;SDS011;62338;48.832;9.422;2023-02-03T12:05:32;2.53;;;1.30;;
4786;SDS011;62338;48.832;9.422;2023-02-03T12:24:18;1.70;;;1.00;;
4786;SDS011;62338;48.832;9.422;2023-02-03T12:26:36;1.90;;;1.17;;
4786;SDS011;62338;48.832;9.422;2023-02-03T12:33:40;4.23;;;1.10;;
4786;SDS011;62338;48.832;9.422;2023-02-03T12:35:55;1.73;;;1.00;;
4786;SDS011;62338;48.832;9.422;2023-02-03T12:38:09;2.47;;;1.20;;
4786;SDS011;62338;48.832;9.422;2023-02-03T12:40:35;1.70;;;1.10;;
4786;SDS011;62338;48.832;9.422;2023-02-03T12:42:45;1.87;;;1.20;;
4786;SDS011;62338;48.832;9.422;2023-02-03T12:45:04;1.73;;;0.90;;
4786;SDS011;62338;48.832;9.422;2023-02-03T12:47:13;2.13;;;1.00;;
4786;SDS011;62338;48.832;9.422;2023-02-03T12:49:44;2.40;;;1.00;;
4786;SDS011;62338;48.832;9.422;2023-02-03T12:52:02;2.17;;;1.00;;
4786;SDS011;62338;48.832;9.422;2023-02-03T12:54:19;2.17;;;1.03;;
4786;SDS011;62338;48.832;9.422;2023-02-03T12:56:36;1.77;;;0.90;;
4786;SDS011;62338;48.832;9.422;2023-02-03T12:58:48;2.20;;;1.10;;
4786;SDS011;62338;48.832;9.422;2023-02-03T13:00:58;1.90;;;1.00;;
4786;SDS011;62338;48.832;9.422;2023-02-03T13:03:27;1.63;;;1.00;;
4786;SDS011;62338;48.832;9.422;2023-02-03T13:05:44;2.03;;;1.00;;
4786;SDS011;62338;48.832;9.422;2023-02-03T13:08:01;2.17;;;1.00;;
4786;SDS011;62338;48.832;9.422;2023-02-03T13:10:17;3.43;;;1.13;;
4786;SDS011;62338;48.832;9.422;2023-02-03T13:14:41;2.60;;;0.90;;
4786;SDS011;62338;48.832;9.422;2023-02-03T13:16:50;1.60;;;1.00;;
4786;SDS011;62338;48.832;9.422;2023-02-03T13:19:04;6.83;;;1.20;;
4786;SDS011;62338;48.832;9.422;2023-02-03T13:21:11;1.97;;;1.00;;
4786;SDS011;62338;48.832;9.422;2023-02-03T13:23:13;1.80;;;1.03;;
4786;SDS011;62338;48.832;9.422;2023-02-03T13:25:17;1.40;;;0.80;;
4786;SDS011;62338;48.832;9.422;2023-02-03T13:42:11;1.97;;;1.10;;
4786;SDS011;62338;48.832;9.422;2023-02-03T13:44:31;1.73;;;1.00;;
4786;SDS011;62338;48.832;9.422;2023-02-03T13:46:34;3.20;;;1.13;;
4786;SDS011;62338;48.832;9.422;2023-02-03T13:48:36;1.60;;;0.90;;
4786;SDS011;62338;48.832;9.422;2023-02-03T13:50:38;1.50;;;0.90;;
4786;SDS011;62338;48.832;9.422;2023-02-03T13:52:43;1.50;;;0.90;;
4786;SDS011;62338;48.832;9.422;2023-02-03T13:54:55;1.70;;;0.90;;
4786;SDS011;62338;48.832;9.422;2023-02-03T13:56:58;1.50;;;0.90;;
4786;SDS011;62338;48.832;9.422;2023-02-03T14:03:47;1.40;;;0.80;;
4786;SDS011;62338;48.832;9.422;2023-02-03T14:05:50;1.50;;;0.97;;
4786;SDS011;62338;48.832;9.422;2023-02-03T14:07:54;2.90;;;1.00;;
4786;SDS011;62338;48.832;9.422;2023-02-03T14:16:24;2.23;;;0.93;;
4786;SDS011;62338;48.832;9.422;2023-02-03T14:18:30;1.40;;;0.70;;
4786;SDS011;62338;48.832;9.422;2023-02-03T14:20:38;1.80;;;1.00;;
4786;SDS011;62338;48.832;9.422;2023-02-03T14:22:42;1.50;;;0.80;;
4786;SDS011;62338;48.832;9.422;2023-02-03T14:24:44;1.77;;;0.80;;
4786;SDS011;62338;48.832;9.422;2023-02-03T14:26:49;1.50;;;0.80;;
